Time;durP1;ratioP1;P1;durP2;ratioP2;P2;SDS_P1;SDS_P2;PMS_P1;PMS_P2;Temp;Humidity;BMP_temperature;BMP_pressure;BME280_temperature;BME280_humidity;BME280_pressure;Samples;Min_cycle;Max_cycle;Signal;HPM_P1;HPM_P2
2023/07/20 00:01:25;;;;;;;1.92;1.23;;;16.90;99.90;16.80;100152.00;;;;4974323;28;90267;-67
2023/07/20 00:03:56;;;;;;;1.88;1.40;;;16.80;99.90;16.80;100134.00;;;;4968717;28;94071;-66
2023/07/20 00:06:24;;;;;;;1.88;1.58;;;16.70;99.90;16.70;100147.00;;;;4972151;28;87870;-67
2023/07/20 00:08:51;;;;;;;1.83;1.67;;;16.60;99.90;16.60;100127.00;;;;4972830;28;87258;-67
2023/07/20 00:11:16;;;;;;;1.25;1.20;;;16.60;99.90;16.60;100132.00;;;;4955406;28;88147;-66
2023/07/20 00:13:42;;;;;;;1.20;1.10;;;16.50;99.90;16.60;100130.00;;;;4968228;28;88035;-66
2023/07/20 00:16:08;;;;;;;2.28;2.05;;;16.50;99.90;16.60;100126.00;;;;4965731;28;108820;-66
2023/07/20 00:18:33;;;;;;;2.97;1.40;;;16.40;99.90;16.50;100126.00;;;;4966527;28;117866;-66
2023/07/20 00:21:02;;;;;;;1.42;1.20;;;16.40;99.90;16.50;100121.00;;;;4972562;28;116433;-66
2023/07/20 00:23:27;;;;;;;1.40;1.30;;;16.40;99.90;16.50;100113.00;;;;4967417;28;87706;-65
2023/07/20 00:25:54;;;;;;;2.53;1.60;;;16.40;99.90;16.50;100117.00;;;;4972854;28;101660;-65
2023/07/20 00:28:20;;;;;;;3.47;1.80;;;16.40;99.90;16.50;100116.00;;;;4965806;28;111540;-64
2023/07/20 00:30:46;;;;;;;1.58;1.27;;;16.40;99.90;16.50;100121.00;;;;4969452;28;88650;-63
2023/07/20 00:33:12;;;;;;;1.90;1.45;;;16.40;99.90;16.50;100120.00;;;;4970829;28;109824;-64
2023/07/20 00:35:39;;;;;;;2.72;1.83;;;16.30;99.90;16.40;100122.00;;;;4973221;28;108343;-64
2023/07/20 00:38:05;;;;;;;2.75;1.67;;;16.30;99.90;16.40;100128.00;;;;4972936;28;87735;-63
2023/07/20 00:40:41;;;;;;;0.88;0.88;;;16.30;99.90;16.40;100121.00;;;;4971933;28;89236;-64
2023/07/20 00:43:09;;;;;;;2.25;1.52;;;16.30;99.90;16.40;100127.00;;;;4967972;28;88121;-63
2023/07/20 00:45:36;;;;;;;2.42;1.50;;;16.30;99.90;16.40;100127.00;;;;4967399;28;88064;-63
2023/07/20 00:48:04;;;;;;;3.10;1.48;;;16.30;99.90;16.40;100118.00;;;;4966910;28;88581;-64
2023/07/20 00:50:31;;;;;;;1.88;1.40;;;16.30;99.90;16.30;100123.00;;;;4970551;28;99450;-65
2023/07/20 00:52:57;;;;;;;2.13;1.15;;;16.30;99.90;16.30;100116.00;;;;4967873;28;92705;-65
2023/07/20 00:55:24;;;;;;;2.90;1.95;;;16.20;99.90;16.30;100120.00;;;;4963937;28;108203;-65
2023/07/20 00:57:50;;;;;;;1.55;1.45;;;16.20;99.90;16.20;100114.00;;;;4964968;28;106641;-65
2023/07/20 01:00:17;;;;;;;3.67;1.60;;;16.20;99.90;16.20;100113.00;;;;4969517;28;119347;-64
2023/07/20 01:02:43;;;;;;;2.08;1.58;;;16.10;99.90;16.20;100116.00;;;;4968272;28;87959;-65
2023/07/20 01:05:09;;;;;;;1.35;1.25;;;16.10;99.90;16.10;100120.00;;;;4964697;28;101236;-65
2023/07/20 01:07:43;;;;;;;2.13;1.60;;;16.10;99.90;16.10;100119.00;;;;4969411;28;88282;-65
2023/07/20 01:10:33;;;;;;;2.53;2.28;;;16.10;99.90;16.10;100109.00;;;;4982638;27;88056;-65
2023/07/20 01:13:01;;;;;;;1.65;1.50;;;16.10;99.90;16.10;100116.00;;;;4970087;28;88772;-65
2023/07/20 01:15:27;;;;;;;1.52;1.42;;;16.00;99.90;16.10;100121.00;;;;4968408;28;87988;-65
2023/07/20 01:17:53;;;;;;;5.20;1.85;;;16.00;99.90;16.10;100130.00;;;;4965345;28;116027;-65
2023/07/20 01:20:22;;;;;;;3.13;1.83;;;16.00;99.90;16.00;100120.00;;;;4965736;28;117744;-64
2023/07/20 01:23:21;;;;;;;1.60;1.48;;;16.00;99.90;16.00;100140.00;;;;4964301;28;86986;-64
2023/07/20 01:26:39;;;;;;;1.45;1.35;;;15.90;99.90;15.90;100134.00;;;;4967686;28;87966;-65
2023/07/20 01:29:26;;;;;;;1.65;1.40;;;15.90;99.90;15.90;100134.00;;;;4966562;28;88815;-64
2023/07/20 01:31:54;;;;;;;2.47;1.52;;;15.90;99.90;15.90;100133.00;;;;4970884;28;101198;-64
2023/07/20 01:34:20;;;;;;;4.03;2.08;;;15.80;99.90;15.90;100140.00;;;;4962322;28;100700;-65
2023/07/20 01:36:48;;;;;;;2.35;1.88;;;15.80;99.90;15.80;100138.00;;;;4962782;28;108104;-65
2023/07/20 01:39:14;;;;;;;1.98;1.60;;;15.80;99.90;15.80;100137.00;;;;4967049;28;88233;-64
2023/07/20 01:41:40;;;;;;;2.28;1.70;;;15.70;99.90;15.80;100142.00;;;;4964513;28;88172;-63
2023/07/20 01:44:06;;;;;;;2.72;2.10;;;15.70;99.90;15.70;100141.00;;;;4968899;28;111033;-63
2023/07/20 01:46:31;;;;;;;3.40;1.73;;;15.70;99.90;15.70;100140.00;;;;4967022;28;87665;-64
2023/07/20 01:48:57;;;;;;;3.33;1.52;;;15.60;99.90;15.60;100136.00;;;;4967549;28;115726;-64
2023/07/20 01:51:23;;;;;;;2.33;1.70;;;15.60;99.90;15.60;100130.00;;;;4966363;28;101587;-64
2023/07/20 01:53:48;;;;;;;1.92;1.27;;;15.50;99.90;15.50;100141.00;;;;4967618;28;87992;-64
2023/07/20 01:56:14;;;;;;;1.85;1.10;;;15.50;99.90;15.50;100134.00;;;;4970125;28;88920;-64
2023/07/20 01:58:40;;;;;;;1.33;1.23;;;15.50;99.90;15.50;100141.00;;;;4967343;28;117669;-64
2023/07/20 02:01:05;;;;;;;3.17;2.10;;;15.40;99.90;15.50;100134.00;;;;4969858;28;116708;-64
2023/07/20 02:03:31;;;;;;;2.45;1.77;;;15.40;99.90;15.50;100129.00;;;;4965673;28;111103;-64
2023/07/20 02:05:57;;;;;;;1.65;1.15;;;15.40;99.90;15.50;100131.00;;;;4969511;28;88179;-65
2023/07/20 02:08:23;;;;;;;1.90;1.60;;;15.40;99.90;15.50;100137.00;;;;4966985;27;118365;-64
2023/07/20 02:10:49;;;;;;;1.17;1.15;;;15.40;99.90;15.50;100141.00;;;;4967893;28;115555;-65
2023/07/20 02:13:15;;;;;;;2.22;1.38;;;15.40;99.90;15.50;100141.00;;;;4971975;28;111084;-65
2023/07/20 02:15:42;;;;;;;1.98;1.50;;;15.40;99.90;15.50;100141.00;;;;4971720;28;87715;-65
2023/07/20 02:18:08;;;;;;;3.80;1.40;;;15.40;99.90;15.50;100143.00;;;;4965582;28;89246;-65
2023/07/20 02:20:34;;;;;;;1.65;1.45;;;15.40;99.90;15.40;100145.00;;;;4972118;28;88548;-65
2023/07/20 02:23:00;;;;;;;1.55;1.45;;;15.40;99.90;15.40;100134.00;;;;4968416;28;87771;-64
2023/07/20 02:25:26;;;;;;;1.77;1.20;;;15.40;99.90;15.40;100152.00;;;;4968834;28;109749;-65
2023/07/20 02:27:52;;;;;;;3.60;1.30;;;15.40;99.90;15.40;100157.00;;;;4966963;28;117485;-65
2023/07/20 02:30:18;;;;;;;2.15;1.67;;;15.30;99.90;15.30;100149.00;;;;4967212;28;88059;-65
2023/07/20 02:32:45;;;;;;;1.52;1.17;;;15.30;99.90;15.30;100147.00;;;;4966829;28;89179;-65
2023/07/20 02:35:11;;;;;;;2.33;1.63;;;15.30;99.90;15.30;100140.00;;;;4964365;28;88204;-66
2023/07/20 02:37:37;;;;;;;2.55;1.48;;;15.20;99.90;15.30;100147.00;;;;4966786;28;101652;-65
2023/07/20 02:40:04;;;;;;;1.45;1.17;;;15.20;99.90;15.30;100147.00;;;;4967162;28;115755;-64
2023/07/20 02:42:30;;;;;;;2.33;1.63;;;15.20;99.90;15.30;100156.00;;;;4964381;28;89329;-64
2023/07/20 02:44:56;;;;;;;2.03;1.87;;;15.20;99.90;15.30;100156.00;;;;4966590;28;94354;-64
2023/07/20 02:50:55;;;;;;;1.27;1.17;;;15.20;99.90;15.20;100156.00;;;;4965683;28;87956;-64
2023/07/20 02:53:21;;;;;;;1.27;0.93;;;15.20;99.90;15.30;100162.00;;;;4964087;28;110313;-64
2023/07/20 02:55:47;;;;;;;3.22;1.67;;;15.20;99.90;15.20;100160.00;;;;4965635;28;88101;-64
2023/07/20 02:58:13;;;;;;;2.00;1.67;;;15.20;99.90;15.20;100159.00;;;;4964792;28;89062;-64
2023/07/20 03:00:38;;;;;;;1.50;1.40;;;15.20;99.90;15.20;100164.00;;;;4965092;28;117373;-65
2023/07/20 03:03:05;;;;;;;1.52;1.40;;;15.10;99.90;15.20;100171.00;;;;4965874;28;109867;-66
2023/07/20 03:05:31;;;;;;;1.13;1.13;;;15.10;99.90;15.20;100163.00;;;;4965103;28;88126;-65
2023/07/20 03:07:56;;;;;;;2.42;1.25;;;15.10;99.90;15.20;100163.00;;;;4966669;28;88991;-64
2023/07/20 03:10:22;;;;;;;1.50;1.40;;;15.10;99.90;15.20;100172.00;;;;4969187;28;116855;-65
2023/07/20 03:12:47;;;;;;;1.45;1.35;;;15.10;99.90;15.20;100169.00;;;;4970319;28;111572;-64
2023/07/20 03:15:13;;;;;;;2.00;1.27;;;15.10;99.90;15.20;100171.00;;;;4972629;28;109211;-64
2023/07/20 03:17:39;;;;;;;2.50;1.85;;;15.10;99.90;15.20;100183.00;;;;4968421;28;116571;-65
2023/07/20 03:20:09;;;;;;;1.27;1.10;;;15.10;99.90;15.20;100182.00;;;;4970341;28;100879;-65
2023/07/20 03:22:34;;;;;;;2.40;1.95;;;15.10;99.90;15.20;100183.00;;;;4984578;28;88046;-64
2023/07/20 03:25:00;;;;;;;2.15;1.70;;;15.10;99.90;15.20;100187.00;;;;4972559;28;107906;-64
2023/07/20 03:27:25;;;;;;;2.63;1.90;;;15.10;99.90;15.20;100186.00;;;;4968249;28;117139;-64
2023/07/20 03:29:51;;;;;;;3.22;1.45;;;15.10;99.90;15.20;100185.00;;;;4966297;28;115863;-65
2023/07/20 03:32:17;;;;;;;1.52;1.42;;;15.10;99.90;15.20;100188.00;;;;4970072;28;110724;-64
2023/07/20 03:34:44;;;;;;;1.75;1.45;;;15.20;99.90;15.30;100194.00;;;;4970433;28;108475;-64
2023/07/20 03:37:09;;;;;;;2.20;1.95;;;15.20;99.90;15.30;100192.00;;;;4973587;28;88753;-63
2023/07/20 03:39:35;;;;;;;1.73;1.63;;;15.20;99.90;15.30;100194.00;;;;4970688;28;118484;-64
2023/07/20 03:42:01;;;;;;;2.80;2.38;;;15.20;99.90;15.30;100186.00;;;;4973419;28;87649;-65
2023/07/20 03:44:26;;;;;;;1.85;1.75;;;15.30;99.90;15.30;100183.00;;;;4970136;28;102555;-64
2023/07/20 03:46:52;;;;;;;2.05;1.83;;;15.30;99.90;15.40;100179.00;;;;4971103;28;87973;-64
2023/07/20 03:49:18;;;;;;;1.77;1.63;;;15.30;99.90;15.40;100180.00;;;;4968753;28;117116;-63
2023/07/20 03:51:43;;;;;;;3.10;1.95;;;15.30;99.90;15.40;100185.00;;;;4971353;28;87122;-63
2023/07/20 03:54:09;;;;;;;3.58;2.15;;;15.30;99.90;15.40;100186.00;;;;4963857;28;108940;-63
2023/07/20 03:56:35;;;;;;;1.83;1.70;;;15.30;99.90;15.40;100191.00;;;;4972369;28;88014;-63
2023/07/20 03:59:01;;;;;;;1.70;1.60;;;15.30;99.90;15.40;100191.00;;;;4971933;28;88690;-63
2023/07/20 04:01:27;;;;;;;4.07;2.35;;;15.30;99.90;15.40;100195.00;;;;4971285;28;91664;-63
2023/07/20 04:03:52;;;;;;;2.13;1.90;;;15.30;99.90;15.40;100192.00;;;;4970876;28;94954;-63
2023/07/20 04:06:18;;;;;;;3.40;1.85;;;15.40;99.90;15.50;100194.00;;;;4972511;28;117348;-63
2023/07/20 04:08:47;;;;;;;3.53;1.25;;;15.40;99.90;15.50;100199.00;;;;4970834;28;98638;-63
2023/07/20 04:11:12;;;;;;;3.35;2.15;;;15.40;99.90;15.50;100190.00;;;;4968973;28;87948;-63
2023/07/20 04:13:38;;;;;;;3.05;1.50;;;15.40;99.90;15.50;100186.00;;;;4969820;28;109753;-63
2023/07/20 04:16:04;;;;;;;3.65;2.35;;;15.40;99.90;15.50;100182.00;;;;4969683;28;87662;-63
2023/07/20 04:18:30;;;;;;;2.40;2.10;;;15.50;99.90;15.60;100196.00;;;;4966385;28;107890;-62
2023/07/20 04:20:56;;;;;;;1.90;1.80;;;15.50;99.90;15.60;100194.00;;;;4967082;28;109678;-62
2023/07/20 04:23:22;;;;;;;3.67;2.60;;;15.50;99.90;15.60;100194.00;;;;4967405;28;107777;-63
2023/07/20 04:25:47;;;;;;;5.75;2.33;;;15.50;99.90;15.70;100192.00;;;;4966437;28;88424;-63
2023/07/20 04:28:13;;;;;;;2.83;2.20;;;15.60;99.90;15.70;100194.00;;;;4971270;28;118687;-62
2023/07/20 04:30:42;;;;;;;2.33;1.85;;;15.60;99.90;15.80;100193.00;;;;4964889;28;109246;-62
2023/07/20 04:33:08;;;;;;;3.15;2.15;;;15.70;99.90;15.80;100193.00;;;;4964418;28;88006;-62
2023/07/20 04:35:50;;;;;;;3.38;2.50;;;15.70;99.90;15.90;100188.00;;;;4962944;28;118886;-64
2023/07/20 04:38:17;;;;;;;2.60;2.40;;;15.80;99.90;16.00;100181.00;;;;4964028;28;88847;-64
2023/07/20 04:40:47;;;;;;;3.28;2.70;;;15.80;99.90;16.00;100193.00;;;;4966521;28;87437;-64
2023/07/20 04:43:14;;;;;;;2.95;2.40;;;15.90;99.90;16.00;100199.00;;;;4966520;28;96565;-64
2023/07/20 04:45:40;;;;;;;2.70;2.35;;;16.00;99.90;16.10;100197.00;;;;4964670;28;88707;-64
2023/07/20 04:48:14;;;;;;;2.75;2.50;;;16.00;99.90;16.20;100204.00;;;;4962275;28;88955;-64
2023/07/20 04:50:45;;;;;;;4.78;2.80;;;16.00;99.90;16.20;100199.00;;;;4967078;28;87987;-64
2023/07/20 04:53:14;;;;;;;2.53;2.33;;;16.10;99.90;16.20;100200.00;;;;4965189;28;88918;-64
2023/07/20 04:55:40;;;;;;;4.35;2.30;;;16.10;99.90;16.30;100200.00;;;;4965091;28;116805;-65
2023/07/20 04:58:06;;;;;;;3.28;2.72;;;16.20;99.90;16.30;100196.00;;;;4961158;28;87936;-64
2023/07/20 05:00:33;;;;;;;3.03;2.15;;;16.20;99.90;16.40;100194.00;;;;4964099;28;109923;-65
2023/07/20 05:02:59;;;;;;;3.45;3.15;;;16.30;99.90;16.50;100205.00;;;;4964788;28;88015;-64
2023/07/20 05:05:25;;;;;;;2.53;2.33;;;16.30;99.90;16.50;100195.00;;;;4965317;28;116419;-64
2023/07/20 05:07:50;;;;;;;3.33;2.63;;;16.40;99.90;16.50;100202.00;;;;4965049;28;88176;-63
2023/07/20 05:10:16;;;;;;;3.33;2.17;;;16.40;99.90;16.60;100200.00;;;;4964174;28;110986;-63
2023/07/20 05:12:42;;;;;;;3.80;2.70;;;16.40;99.90;16.60;100198.00;;;;4967090;28;89064;-63
2023/07/20 05:15:09;;;;;;;3.50;2.05;;;16.40;99.90;16.60;100208.00;;;;4966357;28;89367;-63
2023/07/20 05:17:34;;;;;;;3.08;2.33;;;16.50;99.90;16.70;100199.00;;;;4962971;28;108073;-65
2023/07/20 05:20:00;;;;;;;3.83;2.83;;;16.60;99.90;16.80;100196.00;;;;4965422;28;96245;-65
2023/07/20 05:22:26;;;;;;;3.35;2.97;;;16.70;99.90;17.00;100204.00;;;;4970530;28;88090;-65
2023/07/20 05:24:51;;;;;;;4.07;2.65;;;16.80;99.90;17.10;100193.00;;;;4967143;28;100263;-64
2023/07/20 05:27:17;;;;;;;4.72;3.38;;;16.90;99.90;17.20;100194.00;;;;4965790;28;117520;-63
2023/07/20 05:29:47;;;;;;;2.15;1.95;;;17.10;99.90;17.30;100202.00;;;;4965285;28;110504;-64
2023/07/20 05:32:13;;;;;;;2.55;2.35;;;17.20;99.90;17.40;100196.00;;;;4964436;28;109021;-65
2023/07/20 05:34:39;;;;;;;2.85;2.17;;;17.20;99.90;17.40;100201.00;;;;4968223;28;109671;-64
2023/07/20 05:37:05;;;;;;;2.50;2.05;;;17.30;99.90;17.40;100203.00;;;;4965589;28;100039;-64
2023/07/20 05:39:33;;;;;;;2.38;2.15;;;17.30;99.90;17.50;100201.00;;;;4966003;28;87892;-66
2023/07/20 05:41:59;;;;;;;3.13;2.47;;;17.30;99.90;17.60;100208.00;;;;4969093;28;87937;-66
2023/07/20 05:44:24;;;;;;;5.40;2.80;;;17.40;99.90;17.60;100208.00;;;;4969245;28;116899;-65
2023/07/20 05:46:50;;;;;;;2.58;2.20;;;17.50;99.90;17.70;100209.00;;;;4966982;28;118732;-65
2023/07/20 05:49:16;;;;;;;2.20;2.00;;;17.60;99.90;17.80;100215.00;;;;4970668;28;87982;-65
2023/07/20 05:51:42;;;;;;;3.40;2.55;;;17.60;99.90;17.80;100204.00;;;;4967491;28;108893;-65
2023/07/20 05:54:08;;;;;;;2.95;2.67;;;17.70;99.90;17.90;100215.00;;;;4963751;28;117028;-65
2023/07/20 05:56:33;;;;;;;3.25;2.25;;;17.80;99.90;18.00;100220.00;;;;4962069;28;89229;-65
2023/07/20 05:58:59;;;;;;;3.10;2.33;;;17.80;99.90;18.00;100217.00;;;;4963369;28;108766;-64
2023/07/20 06:01:27;;;;;;;2.42;2.22;;;17.90;99.90;18.10;100225.00;;;;4967484;28;88846;-64
2023/07/20 06:03:53;;;;;;;2.30;1.55;;;18.00;99.90;18.10;100226.00;;;;4965189;28;89441;-64
2023/07/20 06:06:19;;;;;;;2.58;2.38;;;18.00;99.90;18.20;100221.00;;;;4968799;28;91046;-64
2023/07/20 06:08:45;;;;;;;2.50;1.60;;;18.00;99.90;18.20;100228.00;;;;4969199;28;87793;-65
2023/07/20 06:11:11;;;;;;;2.10;1.90;;;18.20;99.90;18.10;100221.00;;;;4965620;28;88095;-64
2023/07/20 06:13:36;;;;;;;2.92;2.10;;;18.00;99.90;18.10;100224.00;;;;4965070;28;118045;-64
2023/07/20 06:16:03;;;;;;;2.17;1.80;;;18.00;99.90;18.10;100213.00;;;;4965212;28;117812;-64
2023/07/20 06:18:30;;;;;;;2.65;2.33;;;18.00;99.90;18.10;100226.00;;;;4966455;28;87546;-64
2023/07/20 06:20:55;;;;;;;4.65;2.15;;;18.00;99.90;18.10;100217.00;;;;4965985;28;87649;-64
2023/07/20 06:23:21;;;;;;;2.55;2.00;;;18.00;99.90;18.10;100212.00;;;;4965244;28;117932;-64
2023/07/20 06:25:47;;;;;;;4.32;2.55;;;18.00;99.90;18.10;100217.00;;;;4964048;28;118260;-62
2023/07/20 06:28:13;;;;;;;3.38;2.92;;;18.00;99.90;18.20;100218.00;;;;4967360;28;87760;-63
2023/07/20 06:30:39;;;;;;;1.83;1.55;;;18.00;99.90;18.30;100223.00;;;;4964862;28;88697;-62
2023/07/20 06:33:05;;;;;;;3.90;2.35;;;18.10;99.90;18.40;100219.00;;;;4966030;28;88912;-65
2023/07/20 06:35:31;;;;;;;3.03;2.25;;;18.20;99.90;18.60;100235.00;;;;4968061;28;99619;-64
2023/07/20 06:37:59;;;;;;;1.80;1.70;;;18.40;99.90;18.80;100230.00;;;;4964796;28;109822;-63
2023/07/20 06:40:24;;;;;;;2.45;2.25;;;18.60;99.90;19.00;100239.00;;;;4966905;28;87858;-63
2023/07/20 06:42:50;;;;;;;3.58;2.17;;;18.80;99.90;19.20;100234.00;;;;4969605;28;117807;-62
2023/07/20 06:45:16;;;;;;;1.48;1.38;;;19.00;99.90;19.40;100227.00;;;;4970542;28;117214;-63
2023/07/20 06:47:48;;;;;;;1.92;1.80;;;19.20;99.90;19.60;100239.00;;;;4970309;28;87539;-64
2023/07/20 06:50:13;;;;;;;2.95;2.42;;;19.40;99.90;19.70;100242.00;;;;4970541;28;109013;-63
2023/07/20 06:52:39;;;;;;;4.10;2.75;;;19.50;99.90;19.80;100248.00;;;;4969679;28;89208;-64
2023/07/20 06:55:06;;;;;;;2.28;1.95;;;19.60;99.90;19.90;100238.00;;;;4971685;28;88569;-64
2023/07/20 06:57:32;;;;;;;2.70;2.15;;;19.70;99.90;20.00;100249.00;;;;4970302;28;104124;-64
2023/07/20 06:59:58;;;;;;;2.95;1.67;;;19.90;99.90;20.20;100244.00;;;;4970403;28;109282;-62
2023/07/20 07:02:23;;;;;;;1.38;1.27;;;20.00;99.90;20.40;100249.00;;;;4970967;28;102726;-63
2023/07/20 07:04:49;;;;;;;1.38;1.20;;;20.20;99.90;20.50;100250.00;;;;4964582;28;116791;-63
2023/07/20 07:07:15;;;;;;;2.22;1.38;;;20.30;99.90;20.60;100250.00;;;;4972497;28;110452;-63
2023/07/20 07:09:41;;;;;;;1.38;1.27;;;20.40;99.90;20.70;100244.00;;;;4968009;28;109153;-63
2023/07/20 07:12:08;;;;;;;1.42;0.80;;;20.50;99.90;20.70;100252.00;;;;4967550;28;88716;-63
2023/07/20 07:14:34;;;;;;;2.53;1.50;;;20.60;99.90;20.70;100255.00;;;;4969547;28;88847;-65
2023/07/20 07:17:00;;;;;;;2.67;1.55;;;20.60;99.90;20.80;100264.00;;;;4965660;28;89512;-64
2023/07/20 07:19:25;;;;;;;1.38;1.30;;;20.60;99.90;20.70;100262.00;;;;4971272;28;88382;-64
2023/07/20 07:21:51;;;;;;;1.95;1.83;;;20.60;99.90;20.70;100252.00;;;;4968133;28;118627;-65
2023/07/20 07:24:17;;;;;;;6.20;1.30;;;20.50;99.90;20.70;100253.00;;;;4969188;28;96767;-65
2023/07/20 07:26:42;;;;;;;1.10;0.98;;;20.50;99.90;20.90;100248.00;;;;4970421;28;110046;-65
2023/07/20 07:29:08;;;;;;;2.67;1.90;;;20.70;99.90;20.90;100251.00;;;;4968478;28;108004;-65
2023/07/20 07:31:38;;;;;;;1.33;1.13;;;20.70;99.90;21.00;100241.00;;;;4972422;28;93991;-64
2023/07/20 07:34:04;;;;;;;1.92;1.80;;;20.80;99.90;21.20;100246.00;;;;4969422;28;88026;-65
2023/07/20 07:36:31;;;;;;;1.30;1.20;;;21.00;99.90;21.30;100247.00;;;;4971591;28;98960;-64
2023/07/20 07:38:57;;;;;;;1.83;1.20;;;21.10;99.90;21.40;100246.00;;;;4969762;28;88520;-64
2023/07/20 07:41:23;;;;;;;1.13;1.02;;;21.20;99.90;21.40;100258.00;;;;4974950;28;88560;-64
2023/07/20 07:43:49;;;;;;;0.73;0.70;;;21.20;99.90;21.50;100252.00;;;;4969582;28;88465;-64
2023/07/20 07:46:14;;;;;;;4.28;0.90;;;21.30;99.90;21.50;100250.00;;;;4968953;28;111035;-65
2023/07/20 07:48:40;;;;;;;0.98;0.98;;;21.30;99.90;21.60;100264.00;;;;4968137;28;88378;-65
2023/07/20 07:51:06;;;;;;;0.55;0.55;;;21.30;99.90;21.50;100257.00;;;;4967060;28;116896;-64
2023/07/20 07:53:32;;;;;;;1.70;1.13;;;21.30;99.90;21.50;100262.00;;;;4967491;28;116891;-64
2023/07/20 07:55:58;;;;;;;0.63;0.63;;;21.30;99.90;21.40;100264.00;;;;4969187;28;87392;-64
2023/07/20 07:58:24;;;;;;;6.03;1.00;;;21.30;99.90;21.50;100270.00;;;;4964878;28;108997;-65
2023/07/20 08:00:49;;;;;;;0.30;0.30;;;21.30;99.90;21.50;100261.00;;;;4967874;28;117996;-65
2023/07/20 08:03:15;;;;;;;2.60;0.60;;;21.30;99.90;21.50;100274.00;;;;4968075;28;111598;-64
2023/07/20 08:05:41;;;;;;;3.80;0.70;;;21.30;99.90;21.60;100265.00;;;;4970211;28;87781;-64
2023/07/20 08:08:08;;;;;;;0.50;0.32;;;21.40;99.90;21.80;100272.00;;;;4966505;28;108223;-64
2023/07/20 08:10:34;;;;;;;0.30;0.30;;;21.50;99.90;22.10;100272.00;;;;4970546;28;89467;-64
2023/07/20 08:12:59;;;;;;;0.40;0.40;;;21.80;99.90;22.40;100269.00;;;;4970486;28;115174;-65
2023/07/20 08:15:31;;;;;;;0.73;0.47;;;22.00;99.70;22.70;100276.00;;;;4967709;28;110567;-65
2023/07/20 08:17:57;;;;;;;0.20;0.20;;;22.40;99.90;22.90;100282.00;;;;4967582;28;108426;-65
2023/07/20 08:20:26;;;;;;;0.55;0.55;;;22.60;98.70;23.10;100282.00;;;;4969268;28;88540;-65
2023/07/20 08:22:54;;;;;;;0.68;0.52;;;22.80;97.50;23.10;100288.00;;;;4969068;28;88117;-65
2023/07/20 08:25:20;;;;;;;0.50;0.40;;;22.90;96.70;23.00;100276.00;;;;4969997;28;102623;-65
2023/07/20 08:27:47;;;;;;;0.52;0.50;;;22.80;95.20;22.90;100288.00;;;;4970230;28;88922;-64
2023/07/20 08:30:13;;;;;;;2.38;0.57;;;22.80;94.90;22.80;100283.00;;;;4967112;28;89121;-65
2023/07/20 08:32:39;;;;;;;0.40;0.30;;;22.60;94.50;22.70;100285.00;;;;4968035;28;87552;-64
2023/07/20 08:35:06;;;;;;;0.22;0.22;;;22.50;94.10;22.70;100286.00;;;;4967685;28;87716;-64
2023/07/20 08:37:31;;;;;;;0.75;0.75;;;22.50;94.20;22.90;100291.00;;;;4969589;28;87997;-66
2023/07/20 08:39:57;;;;;;;0.90;0.43;;;22.60;93.80;23.00;100291.00;;;;4969188;28;116285;-64
2023/07/20 08:42:23;;;;;;;0.60;0.60;;;22.70;93.70;23.30;100300.00;;;;4972172;28;117030;-64
2023/07/20 08:44:50;;;;;;;0.60;0.60;;;23.00;93.60;23.40;100289.00;;;;4968505;28;110182;-66
2023/07/20 08:47:16;;;;;;;0.88;0.50;;;23.20;92.50;23.50;100296.00;;;;4967560;28;87922;-65
2023/07/20 08:49:42;;;;;;;0.52;0.52;;;23.30;90.70;23.50;100296.00;;;;4966252;28;111208;-65
2023/07/20 08:52:08;;;;;;;0.68;0.40;;;23.30;89.50;23.60;100290.00;;;;4970542;28;90251;-65
2023/07/20 08:54:35;;;;;;;0.82;0.52;;;23.40;90.20;23.80;100292.00;;;;4950978;28;109114;-64
2023/07/20 08:57:03;;;;;;;1.13;0.80;;;23.50;89.90;23.80;100302.00;;;;4966360;28;87889;-64
2023/07/20 08:59:30;;;;;;;0.47;0.47;;;23.60;89.20;24.00;100302.00;;;;4969271;28;88344;-64
2023/07/20 09:02:00;;;;;;;0.47;0.40;;;23.70;88.10;23.90;100297.00;;;;4964913;28;89334;-65
2023/07/20 09:04:26;;;;;;;1.08;0.52;;;23.70;86.80;23.90;100295.00;;;;4961386;28;87854;-64
2023/07/20 09:06:52;;;;;;;1.55;0.75;;;23.70;86.50;24.00;100303.00;;;;4971015;28;87777;-64
2023/07/20 09:09:18;;;;;;;0.47;0.30;;;23.80;86.10;24.00;100294.00;;;;4967259;28;88212;-63
2023/07/20 09:11:48;;;;;;;0.55;0.45;;;23.80;84.90;24.20;100298.00;;;;4966724;28;100707;-64
2023/07/20 09:14:14;;;;;;;1.80;0.60;;;24.00;83.50;24.20;100289.00;;;;4966104;28;87980;-65
2023/07/20 09:16:56;;;;;;;0.30;0.30;;;24.00;81.20;24.10;100291.00;;;;4971883;28;88854;-65
2023/07/20 09:19:22;;;;;;;0.80;0.68;;;24.00;81.20;24.20;100298.00;;;;4966852;28;87922;-64
2023/07/20 09:21:52;;;;;;;0.98;0.50;;;24.00;81.50;24.40;100288.00;;;;4971844;28;117244;-64
2023/07/20 09:24:19;;;;;;;0.52;0.52;;;24.10;81.00;24.60;100288.00;;;;4971045;28;87928;-64
2023/07/20 09:26:48;;;;;;;0.40;0.40;;;24.30;80.70;24.60;100289.00;;;;4969003;28;88056;-64
2023/07/20 09:29:14;;;;;;;0.32;0.32;;;24.40;79.00;24.50;100296.00;;;;4970846;28;88551;-64
2023/07/20 09:31:41;;;;;;;1.88;0.80;;;24.30;78.50;24.40;100305.00;;;;4966798;28;106235;-64
2023/07/20 09:34:07;;;;;;;0.60;0.30;;;24.20;78.70;24.20;100299.00;;;;4968283;28;87417;-64
2023/07/20 09:36:37;;;;;;;1.05;0.60;;;24.10;78.90;24.10;100297.00;;;;4967039;28;108930;-65
2023/07/20 09:39:04;;;;;;;0.88;0.88;;;24.00;78.90;24.10;100295.00;;;;4967458;28;87719;-64
2023/07/20 09:41:40;;;;;;;0.75;0.75;;;23.90;79.20;24.10;100288.00;;;;4967043;28;88764;-65
2023/07/20 09:44:08;;;;;;;1.05;0.70;;;23.90;78.90;24.30;100296.00;;;;4968539;28;87976;-63
2023/07/20 09:46:44;;;;;;;0.30;0.30;;;24.00;78.80;24.60;100294.00;;;;4969528;28;88191;-64
2023/07/20 09:49:10;;;;;;;0.60;0.40;;;24.20;77.90;24.80;100297.00;;;;4970057;28;88551;-64
2023/07/20 09:51:37;;;;;;;0.73;0.50;;;24.40;76.90;25.00;100288.00;;;;4968910;28;88131;-65
2023/07/20 09:54:04;;;;;;;0.77;0.77;;;24.60;74.30;25.30;100295.00;;;;4967833;28;87926;-65
2023/07/20 09:56:30;;;;;;;0.32;0.32;;;24.90;73.70;25.60;100292.00;;;;4967559;28;87967;-65
2023/07/20 09:58:57;;;;;;;0.95;0.60;;;25.10;73.60;25.90;100307.00;;;;4968887;28;118054;-65
2023/07/20 10:01:26;;;;;;;0.30;0.30;;;25.40;72.60;26.00;100297.00;;;;4965331;28;113508;-65
2023/07/20 10:03:54;;;;;;;0.28;0.25;;;25.60;71.60;26.20;100298.00;;;;4969018;28;87946;-65
2023/07/20 10:06:24;;;;;;;3.42;0.65;;;25.80;71.20;26.30;100303.00;;;;4968308;28;88871;-66
2023/07/20 10:08:56;;;;;;;0.75;0.63;;;25.90;69.30;26.20;100304.00;;;;4967311;28;89270;-65
2023/07/20 10:11:27;;;;;;;0.22;0.22;;;25.90;68.20;26.30;100306.00;;;;4967388;28;88838;-66
2023/07/20 10:13:55;;;;;;;0.38;0.38;;;26.10;68.50;26.50;100297.00;;;;4964043;28;88073;-66
2023/07/20 10:16:34;;;;;;;1.27;0.55;;;26.10;67.20;26.40;100300.00;;;;4966482;28;88310;-65
2023/07/20 10:19:26;;;;;;;0.40;0.30;;;26.10;66.10;26.50;100290.00;;;;4968318;28;97052;-65
2023/07/20 10:22:03;;;;;;;0.88;0.40;;;26.10;66.00;26.70;100296.00;;;;4964451;28;88393;-64
2023/07/20 10:24:31;;;;;;;0.20;0.20;;;26.20;65.50;26.90;100303.00;;;;4970204;28;87217;-65
2023/07/20 10:26:57;;;;;;;0.43;0.43;;;26.40;64.70;26.90;100303.00;;;;4966249;28;107720;-64
2023/07/20 10:29:24;;;;;;;1.23;0.63;;;26.50;62.00;26.80;100303.00;;;;4967943;28;89709;-65
2023/07/20 10:31:50;;;;;;;0.40;0.40;;;26.50;61.80;26.70;100289.00;;;;4965517;28;89064;-65
2023/07/20 10:34:17;;;;;;;0.28;0.28;;;26.40;59.80;26.60;100294.00;;;;4961834;28;110303;-66
2023/07/20 10:36:49;;;;;;;0.25;0.25;;;26.30;59.60;26.60;100287.00;;;;4965415;28;107455;-65
2023/07/20 10:39:28;;;;;;;0.20;0.20;;;26.30;59.30;26.80;100290.00;;;;4967188;28;89771;-65
2023/07/20 10:42:08;;;;;;;1.35;0.30;;;26.30;60.00;27.00;100296.00;;;;4965970;28;87678;-65
2023/07/20 10:44:34;;;;;;;0.20;0.20;;;26.50;60.80;27.30;100298.00;;;;4972036;28;88071;-66
2023/07/20 10:47:20;;;;;;;0.38;0.32;;;26.80;60.80;27.80;100283.00;;;;4973337;28;87671;-66
2023/07/20 10:50:02;;;;;;;0.10;0.10;;;27.10;60.50;28.20;100287.00;;;;4963300;28;117282;-66